createdAt,value
2023-04-09T00:01:46.502Z,30.27
2023-04-09T00:04:14.112Z,24.53
2023-04-09T00:06:42.975Z,27.13
2023-04-09T00:09:10.599Z,36.67
2023-04-09T00:11:38.066Z,21.50
2023-04-09T00:14:05.622Z,24.10
2023-04-09T00:16:33.121Z,29.40
2023-04-09T00:19:00.960Z,23.80
2023-04-09T00:21:28.432Z,21.33
2023-04-09T00:23:57.493Z,23.73
2023-04-09T00:26:25.042Z,22.60
2023-04-09T00:28:52.865Z,19.00
2023-04-09T00:31:20.994Z,19.63
2023-04-09T00:33:48.782Z,26.70
2023-04-09T00:36:16.646Z,25.00
2023-04-09T00:38:44.260Z,20.50
2023-04-09T00:41:13.048Z,25.03
2023-04-09T00:43:40.720Z,17.80
2023-04-09T00:46:08.469Z,22.13
2023-04-09T00:48:36.902Z,22.33
2023-04-09T00:51:04.597Z,27.10
2023-04-09T00:53:32.262Z,23.70
2023-04-09T00:55:59.916Z,20.93
2023-04-09T00:58:28.834Z,18.90
2023-04-09T01:00:56.399Z,18.47
2023-04-09T01:03:24.478Z,20.80
2023-04-09T01:06:00.731Z,19.27
2023-04-09T01:08:37.838Z,21.43
2023-04-09T01:11:15.378Z,13.57
2023-04-09T01:13:54.831Z,19.80
2023-04-09T01:16:24.525Z,15.30
2023-04-09T01:18:59.020Z,20.67
2023-04-09T01:21:31.151Z,22.00
2023-04-09T01:24:03.606Z,21.07
2023-04-09T01:26:54.941Z,23.33
2023-04-09T01:29:31.409Z,16.17
2023-04-09T01:32:01.513Z,16.83
2023-04-09T01:34:30.205Z,19.60
2023-04-09T01:37:01.761Z,24.60
2023-04-09T01:39:32.746Z,19.70
2023-04-09T01:42:02.069Z,18.17
2023-04-09T01:44:31.611Z,24.53
2023-04-09T01:47:00.327Z,18.67
2023-04-09T01:49:29.428Z,25.53
2023-04-09T01:51:57.135Z,21.13
2023-04-09T01:54:24.879Z,14.17
2023-04-09T01:56:52.349Z,15.80
2023-04-09T01:59:19.830Z,18.30
2023-04-09T02:01:54.234Z,17.57
2023-04-09T02:04:27.692Z,16.70
2023-04-09T02:07:05.903Z,17.27
2023-04-09T02:09:37.398Z,19.83
2023-04-09T02:12:07.195Z,20.40
2023-04-09T02:14:37.042Z,18.90
2023-04-09T02:17:10.041Z,22.43
2023-04-09T02:19:41.860Z,18.90
2023-04-09T02:22:09.989Z,17.93
2023-04-09T02:24:37.532Z,15.20
2023-04-09T02:27:06.033Z,16.37
2023-04-09T02:29:33.778Z,15.00
2023-04-09T02:32:01.624Z,17.87
2023-04-09T02:34:30.549Z,16.33
2023-04-09T02:36:58.103Z,23.00
2023-04-09T02:39:26.009Z,19.33
2023-04-09T02:41:53.614Z,13.87
2023-04-09T02:44:21.312Z,17.30
2023-04-09T02:46:49.649Z,15.23
2023-04-09T02:49:17.202Z,20.13
2023-04-09T02:51:46.885Z,18.53
2023-04-09T02:54:14.356Z,12.00
2023-04-09T02:56:41.981Z,18.70
2023-04-09T02:59:09.544Z,14.70
2023-04-09T03:01:37.488Z,19.87
2023-04-09T03:04:05.379Z,19.50
2023-04-09T03:06:33.090Z,18.40
2023-04-09T03:09:01.915Z,19.83
2023-04-09T03:11:29.440Z,15.83
2023-04-09T03:13:56.958Z,17.43
2023-04-09T03:16:26.005Z,16.93
2023-04-09T03:18:54.471Z,23.03
2023-04-09T03:21:22.090Z,16.60
2023-04-09T03:23:51.344Z,13.10
2023-04-09T03:26:20.456Z,18.00
2023-04-09T03:28:49.840Z,12.37
2023-04-09T03:31:18.066Z,12.43
2023-04-09T03:33:46.918Z,18.23
2023-04-09T03:36:14.741Z,13.97
2023-04-09T03:38:55.081Z,16.80
2023-04-09T03:41:32.110Z,11.33
2023-04-09T03:44:03.728Z,28.17
2023-04-09T03:46:37.922Z,12.73
2023-04-09T03:49:08.417Z,13.20
2023-04-09T03:51:40.995Z,20.17
2023-04-09T03:54:09.118Z,10.27
2023-04-09T03:56:38.022Z,12.70
2023-04-09T03:59:09.176Z,20.63
2023-04-09T04:01:42.458Z,18.47
2023-04-09T04:04:10.365Z,20.47
2023-04-09T04:06:50.122Z,13.83
2023-04-09T04:09:25.883Z,19.30
2023-04-09T04:11:58.882Z,17.83
2023-04-09T04:14:38.972Z,16.87
2023-04-09T04:17:17.019Z,13.93
2023-04-09T04:19:44.852Z,15.07
2023-04-09T04:22:13.692Z,10.60
2023-04-09T04:24:45.189Z,13.27
2023-04-09T04:27:18.778Z,15.50
2023-04-09T04:29:46.403Z,16.40
2023-04-09T04:32:27.740Z,10.87
2023-04-09T04:34:56.321Z,17.70
2023-04-09T04:37:26.996Z,12.37
2023-04-09T04:39:58.397Z,13.97
2023-04-09T04:42:27.503Z,19.03
2023-04-09T04:44:55.299Z,14.30
2023-04-09T04:47:36.494Z,9.60
2023-04-09T04:50:06.495Z,15.77
2023-04-09T04:52:42.999Z,11.03
2023-04-09T04:55:12.675Z,13.13
2023-04-09T04:57:41.916Z,22.07
2023-04-09T05:00:11.363Z,20.60
2023-04-09T05:02:39.130Z,10.80
2023-04-09T05:05:19.073Z,13.33
2023-04-09T05:07:52.663Z,15.27
2023-04-09T05:10:21.389Z,22.07
2023-04-09T05:12:50.205Z,16.47
2023-04-09T05:15:38.929Z,16.30
2023-04-09T05:18:07.564Z,22.40
2023-04-09T05:20:36.243Z,14.77
2023-04-09T05:23:10.118Z,16.83
2023-04-09T05:25:41.880Z,12.13
2023-04-09T05:28:17.431Z,14.10
2023-04-09T05:30:49.049Z,24.50
2023-04-09T05:33:18.776Z,19.73
2023-04-09T05:35:46.628Z,16.70
2023-04-09T05:38:14.611Z,18.93
2023-04-09T05:40:45.789Z,20.93
2023-04-09T05:43:14.313Z,18.70
2023-04-09T05:45:45.722Z,34.80
2023-04-09T05:48:13.218Z,35.37
2023-04-09T05:50:54.140Z,17.70
2023-04-09T05:53:24.111Z,24.87
2023-04-09T05:55:51.729Z,27.30
2023-04-09T05:58:22.854Z,18.80
2023-04-09T06:00:52.445Z,20.83
2023-04-09T06:03:20.540Z,23.03
2023-04-09T06:05:48.391Z,15.50
2023-04-09T06:08:16.507Z,19.07
2023-04-09T06:10:45.062Z,18.40
2023-04-09T06:13:12.634Z,20.70
2023-04-09T06:15:40.581Z,19.70
2023-04-09T06:18:09.933Z,14.27
2023-04-09T06:20:37.522Z,19.03
2023-04-09T06:23:05.028Z,22.53
2023-04-09T06:25:32.509Z,14.70
2023-04-09T06:28:00.010Z,15.30
2023-04-09T06:30:27.803Z,18.63
2023-04-09T06:32:55.731Z,23.80
2023-04-09T06:35:24.696Z,20.73
2023-04-09T06:37:52.241Z,26.80
2023-04-09T06:40:22.965Z,17.83
2023-04-09T06:42:50.932Z,17.33
2023-04-09T06:45:23.970Z,23.87
2023-04-09T06:47:51.669Z,20.80
2023-04-09T06:50:19.347Z,18.90
2023-04-09T06:52:48.220Z,33.63
2023-04-09T06:55:15.769Z,25.67
2023-04-09T06:57:43.278Z,27.93
2023-04-09T07:00:11.803Z,26.27
2023-04-09T07:02:39.757Z,28.80
2023-04-09T07:05:07.771Z,25.20
2023-04-09T07:07:35.297Z,20.70
2023-04-09T07:10:04.246Z,23.40
2023-04-09T07:12:33.361Z,21.27
2023-04-09T07:15:01.328Z,21.13
2023-04-09T07:17:29.336Z,27.23
2023-04-09T07:19:56.952Z,27.10
2023-04-09T07:22:26.582Z,24.47
2023-04-09T07:24:55.013Z,22.00
2023-04-09T07:27:26.218Z,17.50
2023-04-09T07:29:56.030Z,22.50
2023-04-09T07:32:23.613Z,24.23
2023-04-09T07:34:53.168Z,26.80
2023-04-09T07:37:21.427Z,28.80
2023-04-09T07:39:49.330Z,23.57
2023-04-09T07:42:16.914Z,22.13
2023-04-09T07:44:45.671Z,30.17
2023-04-09T07:47:13.587Z,23.60
2023-04-09T07:49:41.315Z,28.73
2023-04-09T07:52:09.012Z,29.07
2023-04-09T07:54:36.736Z,27.67
2023-04-09T07:57:04.493Z,30.93
2023-04-09T07:59:32.091Z,26.97
2023-04-09T08:02:01.364Z,29.83
2023-04-09T08:04:29.048Z,34.73
2023-04-09T08:06:56.641Z,28.10
2023-04-09T08:09:24.259Z,24.77
2023-04-09T08:11:51.905Z,25.23
2023-04-09T08:14:22.402Z,21.33
2023-04-09T08:16:53.513Z,25.87
2023-04-09T08:19:22.442Z,23.33
2023-04-09T08:21:49.949Z,23.20
2023-04-09T08:24:18.204Z,22.70
2023-04-09T08:26:46.070Z,26.00
2023-04-09T08:29:14.561Z,32.27
2023-04-09T08:31:42.335Z,22.40
2023-04-09T08:34:10.105Z,27.70
2023-04-09T08:36:38.954Z,26.90
2023-04-09T08:39:06.518Z,21.73
2023-04-09T08:41:35.280Z,27.90
2023-04-09T08:44:02.756Z,26.87
2023-04-09T08:46:30.468Z,30.43
2023-04-09T08:48:58.086Z,23.97
2023-04-09T08:51:25.969Z,30.03
2023-04-09T08:53:58.350Z,27.30
2023-04-09T08:56:27.072Z,25.80
2023-04-09T08:58:56.400Z,29.30
2023-04-09T09:01:25.944Z,23.77
2023-04-09T09:04:01.327Z,26.57
2023-04-09T09:06:33.042Z,24.43
2023-04-09T09:09:03.455Z,25.70
2023-04-09T09:11:31.303Z,22.10
2023-04-09T09:13:59.936Z,22.83
2023-04-09T09:16:27.592Z,28.70
2023-04-09T09:18:56.871Z,25.00
2023-04-09T09:21:26.300Z,23.47
2023-04-09T09:23:53.791Z,27.70
2023-04-09T09:26:25.694Z,30.27
2023-04-09T09:28:55.410Z,28.27
2023-04-09T09:31:24.157Z,25.63
2023-04-09T09:33:52.086Z,26.20
2023-04-09T09:36:33.676Z,30.30
2023-04-09T09:39:03.928Z,27.07
2023-04-09T09:41:32.816Z,21.93
2023-04-09T09:44:00.431Z,22.00
2023-04-09T09:46:28.419Z,20.23
2023-04-09T09:48:57.213Z,18.67
2023-04-09T09:51:30.956Z,22.80
2023-04-09T09:53:59.118Z,26.80
2023-04-09T09:56:32.710Z,26.70
2023-04-09T09:59:08.344Z,25.07
2023-04-09T10:01:36.566Z,24.20
2023-04-09T10:04:07.422Z,22.80
2023-04-09T10:06:35.617Z,23.70
2023-04-09T10:09:06.747Z,26.10
2023-04-09T10:11:36.406Z,24.80
2023-04-09T10:14:06.101Z,23.50
2023-04-09T10:16:34.793Z,27.87
2023-04-09T10:19:03.417Z,23.50
2023-04-09T10:21:37.737Z,25.30
2023-04-09T10:24:07.852Z,28.23
2023-04-09T10:26:36.856Z,23.10
2023-04-09T10:29:08.130Z,25.07
2023-04-09T10:31:52.256Z,26.13
2023-04-09T10:34:22.352Z,27.43
2023-04-09T10:36:56.800Z,25.33
2023-04-09T10:39:27.764Z,24.23
2023-04-09T10:41:57.088Z,31.73
2023-04-09T10:44:27.437Z,24.50
2023-04-09T10:46:56.053Z,25.40
2023-04-09T10:49:25.232Z,29.20
2023-04-09T10:51:53.833Z,22.83
2023-04-09T10:54:49.302Z,22.17
2023-04-09T10:57:19.195Z,24.07
2023-04-09T10:59:50.027Z,27.73
2023-04-09T11:02:55.788Z,24.77
2023-04-09T11:05:29.066Z,22.60
2023-04-09T11:08:03.996Z,18.47
2023-04-09T11:10:32.208Z,25.57
2023-04-09T11:13:00.226Z,18.90
2023-04-09T11:15:29.562Z,21.77
2023-04-09T11:17:58.739Z,26.80
2023-04-09T11:20:27.645Z,22.83
2023-04-09T11:22:56.277Z,27.37
2023-04-09T11:25:26.284Z,20.90
2023-04-09T11:27:54.676Z,25.60
2023-04-09T11:30:22.337Z,24.00
2023-04-09T11:32:51.710Z,24.90
2023-04-09T11:35:20.964Z,29.57
2023-04-09T11:37:50.188Z,22.67
2023-04-09T11:40:19.121Z,24.43
2023-04-09T11:42:48.675Z,29.83
2023-04-09T11:45:17.198Z,26.73
2023-04-09T11:47:46.485Z,25.43
2023-04-09T11:50:16.540Z,24.87
2023-04-09T11:52:44.466Z,26.07
2023-04-09T11:55:12.424Z,26.37
2023-04-09T11:57:44.956Z,21.83
2023-04-09T12:00:14.460Z,21.20
2023-04-09T12:02:47.512Z,29.60
2023-04-09T12:05:24.593Z,32.07
2023-04-09T12:10:28.280Z,26.43
2023-04-09T12:12:56.225Z,28.17
2023-04-09T12:15:25.721Z,25.90
2023-04-09T12:17:57.060Z,20.23
2023-04-09T12:20:34.408Z,21.50
2023-04-09T12:23:03.624Z,22.93
2023-04-09T12:25:32.159Z,21.97
2023-04-09T12:27:59.791Z,25.77
2023-04-09T12:30:27.515Z,23.10
2023-04-09T12:32:56.221Z,26.17
2023-04-09T12:35:24.126Z,22.90
2023-04-09T12:37:53.092Z,29.33
2023-04-09T12:40:21.383Z,23.80
2023-04-09T12:42:49.211Z,33.33
2023-04-09T12:45:18.052Z,29.40
2023-04-09T12:47:46.270Z,22.67
2023-04-09T12:50:16.057Z,21.07
2023-04-09T12:52:44.407Z,28.03
2023-04-09T12:55:14.073Z,28.60
2023-04-09T12:57:46.820Z,27.00
2023-04-09T13:00:18.341Z,27.37
2023-04-09T13:02:46.480Z,27.13
2023-04-09T13:05:14.223Z,31.20
2023-04-09T13:07:43.511Z,32.90
2023-04-09T13:10:13.044Z,24.43
2023-04-09T13:12:41.140Z,29.93
2023-04-09T13:15:09.632Z,30.83
2023-04-09T13:17:37.998Z,27.80
2023-04-09T13:20:06.957Z,25.70
2023-04-09T13:22:34.947Z,29.07
2023-04-09T13:25:02.998Z,32.40
2023-04-09T13:27:33.486Z,34.03
2023-04-09T13:30:01.453Z,30.53
2023-04-09T13:32:29.813Z,29.80
2023-04-09T13:34:57.893Z,27.37
2023-04-09T13:37:25.935Z,30.17
2023-04-09T13:39:53.405Z,26.70
2023-04-09T13:42:21.064Z,32.83
2023-04-09T13:44:50.076Z,26.90
2023-04-09T13:47:18.486Z,35.93
2023-04-09T13:49:46.164Z,29.77
2023-04-09T13:52:14.329Z,31.70
2023-04-09T13:54:41.852Z,26.53
2023-04-09T13:57:10.287Z,30.10
2023-04-09T13:59:39.075Z,29.27
2023-04-09T14:02:08.081Z,26.40
2023-04-09T14:04:36.061Z,26.40
2023-04-09T14:07:07.235Z,25.97
2023-04-09T14:09:34.763Z,25.13
2023-04-09T14:12:02.552Z,25.50
2023-04-09T14:14:30.028Z,27.00
2023-04-09T14:16:57.524Z,24.83
2023-04-09T14:19:26.337Z,26.83
2023-04-09T14:21:55.273Z,29.80
2023-04-09T14:24:23.233Z,21.23
2023-04-09T14:26:53.328Z,25.37
2023-04-09T14:29:21.898Z,29.37
2023-04-09T14:31:49.649Z,25.57
2023-04-09T14:34:17.449Z,27.27
2023-04-09T14:36:46.542Z,19.47
2023-04-09T14:39:14.021Z,17.80
2023-04-09T14:41:41.518Z,26.90
2023-04-09T14:44:09.044Z,20.53
2023-04-09T14:46:37.272Z,18.13
2023-04-09T14:49:04.849Z,20.50
2023-04-09T14:51:32.551Z,24.03
2023-04-09T14:54:01.967Z,19.63
2023-04-09T14:56:29.453Z,18.47
2023-04-09T14:58:56.960Z,23.03
2023-04-09T15:01:24.523Z,17.20
2023-04-09T15:03:52.230Z,20.30
2023-04-09T15:06:19.979Z,16.27
2023-04-09T15:08:47.453Z,14.97
2023-04-09T15:11:19.819Z,16.67
2023-04-09T15:13:47.406Z,20.87
2023-04-09T15:16:22.330Z,19.57
2023-04-09T15:18:52.038Z,21.10
2023-04-09T15:21:20.015Z,15.80
2023-04-09T15:23:47.651Z,19.13
2023-04-09T15:26:15.282Z,15.33
2023-04-09T15:28:44.167Z,15.33
2023-04-09T15:31:12.084Z,15.30
2023-04-09T15:33:39.744Z,13.27
2023-04-09T15:36:07.995Z,14.27
2023-04-09T15:38:35.592Z,12.93
2023-04-09T15:41:04.673Z,12.30
2023-04-09T15:43:32.579Z,11.40
2023-04-09T15:46:08.344Z,13.03
2023-04-09T15:48:35.913Z,10.70
2023-04-09T15:51:04.756Z,15.90
2023-04-09T15:53:32.388Z,13.33
2023-04-09T15:55:59.883Z,13.67
2023-04-09T15:58:27.429Z,15.67
2023-04-09T16:00:54.933Z,10.90
2023-04-09T16:03:23.799Z,17.03
2023-04-09T16:05:51.332Z,14.80
2023-04-09T16:08:18.788Z,11.70
2023-04-09T16:10:48.232Z,11.43
2023-04-09T16:13:21.571Z,13.30
2023-04-09T16:15:49.416Z,13.27
2023-04-09T16:18:17.096Z,16.20
2023-04-09T16:20:46.508Z,13.80
2023-04-09T16:23:14.105Z,12.07
2023-04-09T16:25:41.649Z,12.30
2023-04-09T16:28:16.719Z,12.83
2023-04-09T16:30:44.202Z,11.73
2023-04-09T16:33:11.955Z,13.37
2023-04-09T16:35:39.954Z,11.93
2023-04-09T16:38:09.060Z,10.50
2023-04-09T16:40:36.744Z,16.37
2023-04-09T16:43:04.715Z,17.20
2023-04-09T16:45:32.613Z,13.40
2023-04-09T16:48:00.435Z,9.63
2023-04-09T16:50:28.052Z,12.77
2023-04-09T16:52:55.608Z,13.07
2023-04-09T16:55:24.493Z,16.23
2023-04-09T16:57:52.238Z,13.43
2023-04-09T17:00:20.778Z,12.13
2023-04-09T17:02:48.734Z,14.10
2023-04-09T17:05:17.900Z,12.87
2023-04-09T17:07:45.495Z,13.23
2023-04-09T17:10:14.295Z,12.80
2023-04-09T17:12:44.352Z,14.00
2023-04-09T17:15:12.404Z,14.80
2023-04-09T17:17:39.971Z,13.53
2023-04-09T17:20:08.547Z,16.23
2023-04-09T17:22:36.237Z,11.73
2023-04-09T17:25:04.787Z,16.30
2023-04-09T17:27:32.278Z,15.70
2023-04-09T17:30:01.850Z,12.10
2023-04-09T17:32:29.591Z,12.47
2023-04-09T17:34:57.239Z,14.10
2023-04-09T17:37:24.944Z,11.63
2023-04-09T17:39:52.447Z,9.57
2023-04-09T17:42:21.944Z,10.70
2023-04-09T17:44:49.412Z,10.40
2023-04-09T17:47:18.605Z,10.93
2023-04-09T17:49:48.743Z,14.87
2023-04-09T17:52:16.344Z,17.67
2023-04-09T17:54:45.530Z,13.93
2023-04-09T17:57:13.249Z,14.17
2023-04-09T17:59:41.005Z,13.43
2023-04-09T18:02:08.786Z,14.73
2023-04-09T18:04:37.865Z,14.13
2023-04-09T18:07:05.567Z,13.63
2023-04-09T18:09:33.447Z,18.53
2023-04-09T18:12:02.565Z,16.57
2023-04-09T18:14:32.360Z,14.37
2023-04-09T18:17:00.984Z,16.83
2023-04-09T18:19:28.577Z,21.30
2023-04-09T18:21:57.397Z,21.43
2023-04-09T18:24:26.194Z,14.53
2023-04-09T18:26:53.682Z,15.47
2023-04-09T18:29:21.142Z,18.63
2023-04-09T18:31:48.644Z,15.83
2023-04-09T18:34:16.701Z,17.90
2023-04-09T18:36:44.213Z,18.60
2023-04-09T18:39:13.050Z,14.47
2023-04-09T18:41:40.606Z,17.03
2023-04-09T18:44:08.158Z,17.10
2023-04-09T18:46:35.811Z,19.97
2023-04-09T18:49:03.876Z,15.53
2023-04-09T18:51:31.851Z,13.47
2023-04-09T18:54:00.559Z,16.23
2023-04-09T18:56:29.760Z,15.03
2023-04-09T18:58:59.907Z,15.00
2023-04-09T19:01:27.565Z,17.47
2023-04-09T19:03:55.279Z,18.40
2023-04-09T19:06:23.283Z,12.13
2023-04-09T19:08:57.005Z,12.10
2023-04-09T19:11:24.683Z,14.17
2023-04-09T19:13:53.566Z,12.97
2023-04-09T19:16:21.571Z,14.80
2023-04-09T19:18:49.587Z,12.17
2023-04-09T19:21:18.455Z,17.10
2023-04-09T19:23:46.728Z,12.80
2023-04-09T19:26:14.335Z,12.33
2023-04-09T19:28:41.836Z,14.93
2023-04-09T19:31:12.586Z,14.20
2023-04-09T19:33:40.432Z,21.10
2023-04-09T19:36:08.540Z,17.00
2023-04-09T19:38:36.292Z,16.10
2023-04-09T19:41:03.793Z,17.00
2023-04-09T19:43:31.437Z,12.43
2023-04-09T19:45:58.961Z,15.40
2023-04-09T19:48:27.858Z,14.13
2023-04-09T19:50:55.402Z,15.27
2023-04-09T19:53:22.904Z,16.73
2023-04-09T19:55:50.531Z,12.37
2023-04-09T19:58:18.031Z,15.77
2023-04-09T20:00:45.553Z,12.47
2023-04-09T20:03:13.518Z,15.57
2023-04-09T20:05:46.771Z,14.07
2023-04-09T20:08:15.890Z,14.80
2023-04-09T20:10:46.346Z,14.77
2023-04-09T20:13:14.112Z,15.73
2023-04-09T20:15:41.599Z,13.57
2023-04-09T20:18:09.155Z,14.07
2023-04-09T20:20:36.676Z,14.50
2023-04-09T20:23:05.546Z,16.10
2023-04-09T20:25:36.638Z,14.30
2023-04-09T20:28:04.680Z,18.27
2023-04-09T20:30:33.015Z,13.73
2023-04-09T20:33:01.225Z,17.40
2023-04-09T20:35:28.805Z,16.70
2023-04-09T20:37:56.341Z,17.63
2023-04-09T20:40:25.246Z,16.60
2023-04-09T20:42:52.870Z,14.63
2023-04-09T20:45:20.433Z,14.97
2023-04-09T20:47:48.168Z,18.37
2023-04-09T20:50:16.431Z,14.33
2023-04-09T20:52:44.943Z,17.50
2023-04-09T20:55:12.544Z,13.00
2023-04-09T20:57:41.386Z,17.73
2023-04-09T21:00:10.125Z,12.87
2023-04-09T21:02:39.224Z,14.57
2023-04-09T21:05:19.564Z,12.73
2023-04-09T21:07:50.157Z,11.90
2023-04-09T21:10:17.639Z,17.47
2023-04-09T21:12:46.444Z,16.40
2023-04-09T21:15:13.920Z,15.20
2023-04-09T21:17:41.548Z,16.73
2023-04-09T21:20:09.888Z,16.03
2023-04-09T21:22:37.447Z,14.90
2023-04-09T21:25:05.631Z,13.83
2023-04-09T21:27:33.384Z,19.33
2023-04-09T21:30:02.285Z,15.27
2023-04-09T21:32:29.801Z,14.87
2023-04-09T21:34:57.280Z,10.13
2023-04-09T21:37:25.092Z,12.10
2023-04-09T21:39:53.031Z,13.53
2023-04-09T21:42:21.171Z,13.47
2023-04-09T21:44:48.683Z,12.73
2023-04-09T21:47:17.665Z,13.90
2023-04-09T21:49:46.298Z,14.83
2023-04-09T21:52:15.126Z,14.20
2023-04-09T21:54:42.969Z,12.67
2023-04-09T21:57:10.836Z,12.73
2023-04-09T21:59:40.900Z,14.40
2023-04-09T22:02:09.415Z,14.53
2023-04-09T22:04:42.351Z,15.10
2023-04-09T22:07:11.136Z,15.60
2023-04-09T22:09:38.945Z,16.53
2023-04-09T22:12:06.604Z,17.47
2023-04-09T22:14:34.211Z,12.37
2023-04-09T22:17:02.771Z,14.10
2023-04-09T22:19:32.054Z,15.47
2023-04-09T22:22:00.897Z,16.87
2023-04-09T22:24:30.130Z,14.77
2023-04-09T22:26:58.768Z,15.67
2023-04-09T22:29:26.563Z,13.83
2023-04-09T22:31:54.128Z,16.00
2023-04-09T22:34:22.210Z,16.00
2023-04-09T22:36:50.666Z,14.57
2023-04-09T22:39:19.560Z,21.87
2023-04-09T22:41:47.066Z,16.37
2023-04-09T22:44:14.589Z,25.77
2023-04-09T22:46:42.248Z,17.03
2023-04-09T22:49:09.920Z,20.80
2023-04-09T22:51:39.521Z,18.10
2023-04-09T22:54:08.428Z,17.10
2023-04-09T22:56:37.669Z,23.50
2023-04-09T22:59:06.046Z,20.90
2023-04-09T23:01:33.766Z,22.00
2023-04-09T23:04:01.510Z,20.07
2023-04-09T23:06:30.786Z,26.27
2023-04-09T23:08:59.650Z,22.50
2023-04-09T23:11:27.601Z,20.93
2023-04-09T23:13:56.464Z,32.50
2023-04-09T23:16:24.092Z,25.53
2023-04-09T23:18:51.751Z,30.43
2023-04-09T23:21:19.331Z,30.90
2023-04-09T23:23:48.918Z,28.97
2023-04-09T23:26:16.509Z,35.57
2023-04-09T23:28:44.044Z,28.70
2023-04-09T23:31:13.014Z,29.20
2023-04-09T23:33:40.720Z,25.63
2023-04-09T23:36:09.056Z,30.27
2023-04-09T23:38:36.579Z,34.07
2023-04-09T23:41:04.103Z,32.93
2023-04-09T23:43:31.571Z,42.17
2023-04-09T23:45:59.131Z,41.63
2023-04-09T23:48:27.961Z,38.67
2023-04-09T23:50:55.529Z,40.27
2023-04-09T23:53:23.166Z,36.23
2023-04-09T23:55:50.966Z,38.63
2023-04-09T23:58:18.858Z,33.80
